Hlavní strana
METAR-TAF:

METAR-TAF

Letiště :

Pskov, Rusko

zeměpisná šířka: 57-47-06N, zeměpisná délka: 028-23-54E, výška: 47 m

Aktuální stav počasí

Zpráva byla vytvořena před 26 minutami, v 03:00 UTC
Severozápadní vítr 6 kt
Teplota 10°C
Vlhkost vzduchu 87%
Tlak 1017 hPa
Viditelnost: 7000 m

METAR: ULOO 190300Z AUTO 31003MPS 7000 // ///031/// 10/08 Q1017 RMK QFE759

Čas: 06:26 (03:26 UTC)

Předpověď počasí

Zpráva byla vytvořena před 16 hodinami a 30 minutami, v 10:56 UTC
Předpověď platná od 18 v 12 UTC do 18 v 21 UTC
Jižní vítr 6 kt
Viditelnost: 6000 m
Dočasný
od 18 v 18 UTC do 18 v 21 UTC
Viditelnost: 1500 m
Polojasno ve výšce 300 ft
Přízemní mlha, kouřmo

TAF: ULOO 181056Z 1812/1821 18003MPS 6000 NSC TEMPO 1818/1821 1500 MIFG BR SCT003

Stav a předpovědi počasí z více než 4 000 letišť (zprávy METAR a TAF).

Červené a žluté tečky na mapě představují dostupné meteorologické stanice.

Když kurzor umístíte na tečku, zobrazí se název stanice.

Pak kliknutím zobrazíte stav a předpověď počasí.

Chcete-li změnit mapu, kliknutím na zelené tlačítko se znaménkem +mapu přiblížíte, kliknutím na zelené tlačítko se znaménkem – mapu oddálíte a kliknutím na zelené šipky přejdete na sousední mapy.


METAR-TAF: